Time;durP1;ratioP1;P1;durP2;ratioP2;P2;SDS_P1;SDS_P2;PMS_P1;PMS_P2;Temp;Humidity;BMP_temperature;BMP_pressure;BME280_temperature;BME280_humidity;BME280_pressure;Samples;Min_cycle;Max_cycle;Signal;HPM_P1;HPM_P2
2023/04/29 00:02:19;;;;;;;4.17;3.87;;;19.00;67.70;;;;;;5031603;28;46854;-77
2023/04/29 00:04:47;;;;;;;4.13;3.87;;;19.00;68.80;;;;;;5035032;28;44045;-75
2023/04/29 00:07:17;;;;;;;3.93;3.63;;;19.00;68.00;;;;;;5034712;28;44097;-76
2023/04/29 00:09:45;;;;;;;3.87;3.57;;;19.00;67.90;;;;;;5028339;28;43469;-76
2023/04/29 00:12:13;;;;;;;3.93;3.70;;;19.00;67.90;;;;;;5037060;28;43607;-76
2023/04/29 00:14:42;;;;;;;3.70;3.50;;;19.00;68.00;;;;;;5035476;28;43468;-76
2023/04/29 00:17:10;;;;;;;3.50;3.30;;;18.90;68.10;;;;;;5030159;28;43475;-78
2023/04/29 00:19:38;;;;;;;3.80;3.60;;;19.00;68.30;;;;;;5028630;28;43475;-76
2023/04/29 00:22:06;;;;;;;3.97;3.67;;;19.00;68.00;;;;;;5047651;28;46031;-76
2023/04/29 00:24:37;;;;;;;3.53;3.33;;;19.10;67.80;;;;;;5037204;28;44055;-78
2023/04/29 00:27:05;;;;;;;3.13;3.03;;;19.20;67.60;;;;;;5072720;22;43710;-68
2023/04/29 00:29:33;;;;;;;3.50;3.30;;;19.20;67.50;;;;;;5070471;28;43513;-68
2023/04/29 00:32:02;;;;;;;3.83;3.60;;;19.10;68.30;;;;;;5065202;28;43942;-68
2023/04/29 00:34:30;;;;;;;3.43;3.23;;;19.10;67.60;;;;;;5070369;28;43426;-68
2023/04/29 00:36:58;;;;;;;2.93;2.83;;;19.10;67.60;;;;;;5061332;28;43404;-68
2023/04/29 00:39:26;;;;;;;3.20;3.10;;;19.10;67.50;;;;;;5061959;28;43597;-68
2023/04/29 00:41:55;;;;;;;3.00;2.90;;;19.10;67.60;;;;;;5062135;28;46400;-68
2023/04/29 00:44:23;;;;;;;2.83;2.73;;;19.00;67.70;;;;;;5066991;28;43367;-68
2023/04/29 00:46:51;;;;;;;2.87;2.77;;;19.00;68.00;;;;;;5059093;28;43461;-68
2023/04/29 00:49:19;;;;;;;2.63;2.53;;;19.00;67.90;;;;;;5065127;28;43598;-68
2023/04/29 00:51:47;;;;;;;3.00;2.90;;;19.00;67.80;;;;;;5064665;28;46207;-69
2023/04/29 00:54:15;;;;;;;3.00;2.90;;;19.00;67.70;;;;;;5063843;28;44735;-68
2023/04/29 00:56:43;;;;;;;2.87;2.77;;;19.00;67.90;;;;;;5065387;28;43520;-68
2023/04/29 00:59:14;;;;;;;3.07;2.90;;;18.90;68.00;;;;;;5065305;28;43938;-68
2023/04/29 01:01:43;;;;;;;2.97;2.77;;;19.00;68.20;;;;;;5054909;28;43809;-68
2023/04/29 01:04:12;;;;;;;3.00;2.90;;;19.00;68.00;;;;;;5045362;28;44396;-68
2023/04/29 01:06:55;;;;;;;3.00;2.90;;;19.10;68.30;;;;;;5059776;28;43420;-68
2023/04/29 01:09:35;;;;;;;2.47;2.43;;;19.20;67.50;;;;;;5063867;28;43504;-68
2023/04/29 01:12:09;;;;;;;2.60;2.50;;;19.20;67.40;;;;;;5062823;28;43896;-68
2023/04/29 01:14:39;;;;;;;2.53;2.43;;;19.20;67.50;;;;;;5059907;28;44458;-72
2023/04/29 01:17:11;;;;;;;2.67;2.53;;;19.20;67.50;;;;;;5068935;28;43443;-72
2023/04/29 01:19:44;;;;;;;2.50;2.40;;;19.20;67.50;;;;;;5063008;28;43499;-68
2023/04/29 01:22:13;;;;;;;2.27;2.20;;;19.10;67.40;;;;;;5058206;28;44022;-67
2023/04/29 01:24:42;;;;;;;3.07;2.97;;;19.10;67.40;;;;;;5060987;28;43451;-68
2023/04/29 01:27:14;;;;;;;2.50;2.40;;;19.10;67.70;;;;;;5060744;28;43432;-68
2023/04/29 01:29:49;;;;;;;2.60;2.50;;;19.00;67.80;;;;;;5068511;28;43504;-68
2023/04/29 01:32:19;;;;;;;2.40;2.30;;;19.10;67.80;;;;;;5063758;28;45953;-69
2023/04/29 01:34:49;;;;;;;2.40;2.30;;;19.00;67.60;;;;;;5060072;28;43798;-68
2023/04/29 01:37:20;;;;;;;2.30;2.20;;;19.00;67.70;;;;;;5064107;28;43423;-69
2023/04/29 01:40:05;;;;;;;2.23;2.23;;;19.00;67.80;;;;;;5061769;28;43464;-68
2023/04/29 01:42:39;;;;;;;2.30;2.23;;;19.00;68.00;;;;;;5068114;28;46019;-68
2023/04/29 01:45:14;;;;;;;2.27;2.17;;;19.00;67.90;;;;;;5062855;28;43390;-68
2023/04/29 01:47:42;;;;;;;2.30;2.20;;;19.10;67.50;;;;;;5059552;28;43817;-68
2023/04/29 01:50:11;;;;;;;2.23;2.13;;;19.20;67.50;;;;;;5060923;28;43518;-68
2023/04/29 01:52:39;;;;;;;2.30;2.20;;;19.20;67.40;;;;;;5058223;28;45751;-68
2023/04/29 01:55:10;;;;;;;2.00;2.00;;;19.10;67.40;;;;;;5059921;28;44341;-69
2023/04/29 01:58:07;;;;;;;1.90;1.90;;;19.10;67.40;;;;;;5054438;28;43552;-71
2023/04/29 02:00:59;;;;;;;1.83;1.83;;;19.10;68.10;;;;;;5061837;28;43570;-68
2023/04/29 02:03:30;;;;;;;2.30;2.20;;;19.10;67.40;;;;;;5056184;28;44048;-68
2023/04/29 02:06:01;;;;;;;2.00;2.00;;;19.10;67.40;;;;;;5064576;28;44675;-68
2023/04/29 02:08:29;;;;;;;2.53;2.43;;;19.00;67.60;;;;;;5062447;28;43456;-68
2023/04/29 02:10:59;;;;;;;1.97;1.83;;;19.00;67.70;;;;;;5060820;28;43479;-68
2023/04/29 02:13:54;;;;;;;1.80;1.80;;;19.00;67.70;;;;;;5057865;28;43792;-68
2023/04/29 02:16:23;;;;;;;2.00;2.00;;;19.00;67.60;;;;;;5066932;28;44938;-68
2023/04/29 02:18:57;;;;;;;1.90;1.80;;;19.00;67.60;;;;;;5065530;28;43531;-68
2023/04/29 02:21:26;;;;;;;1.90;1.83;;;19.00;67.70;;;;;;5064664;28;43440;-68
2023/04/29 02:23:54;;;;;;;1.70;1.70;;;18.90;67.90;;;;;;5060683;28;45397;-68
2023/04/29 02:26:25;;;;;;;1.60;1.60;;;19.00;67.90;;;;;;5062859;28;45017;-68
2023/04/29 02:28:56;;;;;;;1.80;1.80;;;19.00;67.60;;;;;;5066601;28;43435;-68
2023/04/29 02:31:24;;;;;;;1.70;1.70;;;19.00;67.60;;;;;;5060422;28;43495;-68
2023/04/29 02:33:54;;;;;;;2.07;2.00;;;19.00;67.70;;;;;;5065590;28;44244;-69
2023/04/29 02:36:23;;;;;;;1.80;1.80;;;18.90;67.80;;;;;;5059384;28;44727;-68
2023/04/29 02:38:54;;;;;;;1.50;1.50;;;19.00;67.90;;;;;;5077955;28;43383;-68
2023/04/29 02:41:22;;;;;;;1.80;1.80;;;19.00;67.60;;;;;;5065559;28;43435;-68
2023/04/29 02:43:51;;;;;;;1.57;1.57;;;19.20;67.50;;;;;;5057093;28;45600;-68
2023/04/29 02:46:19;;;;;;;1.60;1.60;;;19.20;67.20;;;;;;5054667;28;44999;-68
2023/04/29 02:48:48;;;;;;;1.60;1.60;;;19.30;67.00;;;;;;5062476;28;43965;-68
2023/04/29 02:51:15;;;;;;;1.80;1.80;;;19.20;66.90;;;;;;5059640;28;43424;-68
2023/04/29 02:53:43;;;;;;;1.90;1.90;;;19.20;67.10;;;;;;5065192;28;46111;-68
2023/04/29 02:56:11;;;;;;;1.50;1.50;;;19.20;67.10;;;;;;5065473;28;43505;-68
2023/04/29 02:58:41;;;;;;;1.77;1.50;;;19.20;67.20;;;;;;5063842;28;43750;-68
2023/04/29 03:01:10;;;;;;;1.60;1.60;;;19.20;67.10;;;;;;5066173;28;43525;-68
2023/04/29 03:03:38;;;;;;;1.57;1.57;;;19.10;67.20;;;;;;5053388;28;45688;-68
2023/04/29 03:06:07;;;;;;;1.80;1.80;;;19.10;67.40;;;;;;5065777;28;44506;-72
2023/04/29 03:08:35;;;;;;;1.47;1.47;;;19.10;67.40;;;;;;5059804;28;43443;-68
2023/04/29 03:11:03;;;;;;;1.40;1.40;;;19.10;67.40;;;;;;5070478;28;43403;-68
2023/04/29 03:13:31;;;;;;;1.57;1.57;;;19.00;67.30;;;;;;5048412;28;44195;-68
2023/04/29 03:16:00;;;;;;;1.27;1.27;;;19.00;67.30;;;;;;5066630;28;43883;-70
2023/04/29 03:18:29;;;;;;;1.50;1.50;;;19.00;67.50;;;;;;5062328;28;43470;-68
2023/04/29 03:20:57;;;;;;;1.53;1.53;;;19.00;67.70;;;;;;5058215;28;43615;-68
2023/04/29 03:23:25;;;;;;;2.23;2.03;;;19.00;67.60;;;;;;5069793;28;45415;-68
2023/04/29 03:25:55;;;;;;;2.43;1.83;;;19.00;67.50;;;;;;5069176;28;43413;-69
2023/04/29 03:28:25;;;;;;;2.30;2.20;;;19.00;67.60;;;;;;5061122;28;43451;-68
2023/04/29 03:30:52;;;;;;;3.00;2.77;;;19.00;67.70;;;;;;5067336;28;43849;-68
2023/04/29 03:33:20;;;;;;;8.63;3.80;;;19.00;67.80;;;;;;5061026;28;45572;-68
2023/04/29 03:35:50;;;;;;;8.70;4.37;;;19.00;67.60;;;;;;5065241;28;44722;-68
2023/04/29 03:38:33;;;;;;;8.23;4.00;;;19.10;67.40;;;;;;5052157;28;43448;-69
2023/04/29 03:41:01;;;;;;;9.03;4.33;;;19.20;67.10;;;;;;5057056;28;43413;-68
2023/04/29 03:43:31;;;;;;;9.33;4.30;;;19.30;67.00;;;;;;5056817;28;45796;-68
2023/04/29 03:45:59;;;;;;;14.43;5.43;;;19.30;66.80;;;;;;5055826;28;44664;-69
2023/04/29 03:48:27;;;;;;;12.23;5.50;;;19.20;66.90;;;;;;5059522;28;43395;-69
2023/04/29 03:50:56;;;;;;;14.43;6.00;;;19.20;66.90;;;;;;5065760;28;43642;-68
2023/04/29 03:53:25;;;;;;;11.27;5.97;;;19.20;66.90;;;;;;5058296;28;43847;-68
2023/04/29 03:55:53;;;;;;;13.80;5.83;;;19.20;66.90;;;;;;5065396;28;43441;-68
2023/04/29 03:58:22;;;;;;;14.00;5.70;;;19.20;67.10;;;;;;5068071;28;43379;-67
2023/04/29 04:00:51;;;;;;;12.10;6.83;;;19.10;67.90;;;;;;5064348;28;43410;-68
2023/04/29 04:03:24;;;;;;;14.20;6.37;;;19.10;67.40;;;;;;5062152;28;43844;-68
2023/04/29 04:05:55;;;;;;;12.33;5.90;;;19.10;67.40;;;;;;5063719;28;44579;-68
2023/04/29 04:08:24;;;;;;;10.97;5.87;;;19.10;67.30;;;;;;5062175;28;43411;-68
2023/04/29 04:11:01;;;;;;;11.80;6.07;;;19.00;67.30;;;;;;5066957;28;43587;-69
2023/04/29 04:13:36;;;;;;;17.43;7.00;;;19.00;67.30;;;;;;5056804;28;45978;-69
2023/04/29 04:16:05;;;;;;;13.60;6.50;;;19.00;67.30;;;;;;5062341;28;43444;-68
2023/04/29 04:18:33;;;;;;;12.37;6.27;;;19.00;67.30;;;;;;5054452;28;43453;-67
2023/04/29 04:21:06;;;;;;;13.57;6.43;;;19.00;67.30;;;;;;5064795;28;43556;-68
2023/04/29 04:23:39;;;;;;;14.17;6.80;;;19.00;67.30;;;;;;5062479;28;45435;-68
2023/04/29 04:26:08;;;;;;;11.13;6.13;;;19.10;67.40;;;;;;5053215;28;44355;-70
2023/04/29 04:28:54;;;;;;;12.37;6.63;;;19.00;67.30;;;;;;5061990;28;43383;-69
2023/04/29 04:31:48;;;;;;;11.13;5.63;;;19.00;67.40;;;;;;5057012;28;43322;-69
2023/04/29 04:34:18;;;;;;;12.70;6.30;;;19.10;67.20;;;;;;5045418;28;45485;-69
2023/04/29 04:36:48;;;;;;;10.97;6.03;;;19.20;66.90;;;;;;5063826;28;43383;-68
2023/04/29 04:39:18;;;;;;;14.23;6.47;;;19.30;66.60;;;;;;5053483;28;43455;-68
2023/04/29 04:41:46;;;;;;;12.63;6.00;;;19.30;66.40;;;;;;5062991;28;43384;-68
2023/04/29 04:44:15;;;;;;;11.03;6.50;;;19.30;66.60;;;;;;5060855;28;45923;-68
2023/04/29 04:47:05;;;;;;;12.77;6.20;;;19.20;66.60;;;;;;5061334;28;44675;-68
2023/04/29 04:49:42;;;;;;;9.07;5.63;;;19.20;66.60;;;;;;5063287;28;43492;-68
2023/04/29 04:52:11;;;;;;;11.90;5.93;;;19.20;66.60;;;;;;5065788;28;43543;-68
2023/04/29 04:54:41;;;;;;;11.10;5.90;;;19.20;66.70;;;;;;5059820;28;44035;-68
2023/04/29 04:57:16;;;;;;;11.00;5.70;;;19.10;66.80;;;;;;5054632;28;43396;-68
2023/04/29 04:59:44;;;;;;;8.93;5.53;;;19.10;67.00;;;;;;5054562;28;43379;-68
2023/04/29 05:02:12;;;;;;;11.00;5.50;;;19.10;67.00;;;;;;5061819;28;43446;-68
2023/04/29 05:04:40;;;;;;;10.60;5.40;;;19.10;66.90;;;;;;5064440;28;46055;-68
2023/04/29 05:07:09;;;;;;;9.90;5.70;;;19.10;67.00;;;;;;5051336;28;43400;-68
2023/04/29 05:09:58;;;;;;;12.90;6.60;;;19.10;67.10;;;;;;5061197;28;43475;-67
2023/04/29 05:12:29;;;;;;;7.70;5.33;;;19.00;67.10;;;;;;5059176;28;43362;-68
2023/04/29 05:14:58;;;;;;;10.27;5.67;;;19.00;67.00;;;;;;5064571;28;44031;-68
2023/04/29 05:17:28;;;;;;;8.23;5.47;;;19.10;67.00;;;;;;5053266;28;44720;-68
2023/04/29 05:19:56;;;;;;;10.97;6.00;;;19.10;67.00;;;;;;5059585;28;43510;-68
2023/04/29 05:22:26;;;;;;;9.07;5.17;;;19.00;67.00;;;;;;5060443;28;43559;-68
2023/04/29 05:25:01;;;;;;;10.30;5.67;;;19.00;67.20;;;;;;5063286;28;43952;-68
2023/04/29 05:27:31;;;;;;;8.50;5.33;;;19.00;67.20;;;;;;5062012;28;45738;-68
2023/04/29 05:30:00;;;;;;;7.97;5.07;;;19.10;66.90;;;;;;5058527;28;43459;-68
2023/04/29 05:32:28;;;;;;;8.93;5.33;;;19.20;66.60;;;;;;5059795;28;43550;-68
2023/04/29 05:34:56;;;;;;;8.97;5.10;;;19.30;66.40;;;;;;5061476;28;46034;-68
2023/04/29 05:37:29;;;;;;;10.07;5.60;;;19.30;66.30;;;;;;5056512;28;45129;-68
2023/04/29 05:40:04;;;;;;;5.00;4.23;;;19.30;66.40;;;;;;5058731;28;43413;-69
2023/04/29 05:42:35;;;;;;;8.80;4.80;;;19.30;66.50;;;;;;5059089;28;43583;-69
2023/04/29 05:45:03;;;;;;;8.80;4.87;;;19.20;66.40;;;;;;5052555;28;44969;-68
2023/04/29 05:47:32;;;;;;;7.63;4.67;;;19.20;66.40;;;;;;5053656;28;45060;-68
2023/04/29 05:50:01;;;;;;;7.07;5.00;;;19.20;66.60;;;;;;5064800;28;44049;-68
2023/04/29 05:52:29;;;;;;;5.60;5.00;;;19.10;66.60;;;;;;5055327;28;43537;-69
2023/04/29 05:54:58;;;;;;;6.23;4.50;;;19.10;66.90;;;;;;5061148;28;44146;-68
2023/04/29 05:57:27;;;;;;;7.17;4.97;;;19.10;66.70;;;;;;5053926;28;44805;-68
2023/04/29 05:59:59;;;;;;;7.47;4.80;;;19.10;66.70;;;;;;5069157;28;43819;-68
2023/04/29 06:02:27;;;;;;;6.27;4.60;;;19.10;66.80;;;;;;5052910;28;43512;-67
2023/04/29 06:04:55;;;;;;;6.30;4.40;;;19.00;66.80;;;;;;5053569;28;44986;-68
2023/04/29 06:07:41;;;;;;;6.30;4.40;;;19.00;67.00;;;;;;5054330;28;44892;-68
2023/04/29 06:10:32;;;;;;;7.23;4.63;;;19.00;67.00;;;;;;5053816;28;43397;-68
2023/04/29 06:13:00;;;;;;;5.30;4.40;;;19.00;66.80;;;;;;5048814;28;43881;-68
2023/04/29 06:15:29;;;;;;;5.67;4.07;;;19.00;66.80;;;;;;5055031;28;44070;-68
2023/04/29 06:17:57;;;;;;;7.03;4.77;;;19.00;66.90;;;;;;5051769;28;44608;-68
2023/04/29 06:20:25;;;;;;;5.63;4.53;;;19.00;67.00;;;;;;5061780;28;43489;-67
2023/04/29 06:22:53;;;;;;;8.50;4.97;;;19.00;67.10;;;;;;5049858;28;43499;-68
2023/04/29 06:25:21;;;;;;;5.83;4.23;;;19.10;66.90;;;;;;5054081;28;43753;-68
2023/04/29 06:27:51;;;;;;;5.17;3.93;;;19.20;66.60;;;;;;5054097;28;44571;-68
2023/04/29 06:30:22;;;;;;;9.57;5.27;;;19.30;66.30;;;;;;5056149;28;43803;-68
2023/04/29 06:32:52;;;;;;;6.13;4.33;;;19.30;66.20;;;;;;5049955;28;43568;-69
2023/04/29 06:35:20;;;;;;;4.83;4.27;;;19.30;66.30;;;;;;5061405;28;45685;-69
2023/04/29 06:38:14;;;;;;;4.73;4.33;;;19.20;66.30;;;;;;5063516;28;44463;-68
2023/04/29 06:41:00;;;;;;;7.77;4.87;;;19.20;66.40;;;;;;5060034;28;43398;-67
2023/04/29 06:43:28;;;;;;;4.70;4.23;;;19.20;66.30;;;;;;5063126;28;43444;-69
2023/04/29 06:46:15;;;;;;;6.30;4.40;;;19.20;66.50;;;;;;5064733;28;43538;-68
2023/04/29 06:48:59;;;;;;;5.03;4.40;;;19.10;66.60;;;;;;5061300;28;43940;-68
2023/04/29 06:51:27;;;;;;;6.60;4.40;;;19.10;66.80;;;;;;5062440;28;43406;-68
2023/04/29 06:53:58;;;;;;;6.20;4.57;;;19.10;66.80;;;;;;5047621;28;43564;-68
2023/04/29 06:56:26;;;;;;;4.33;3.70;;;19.10;66.70;;;;;;5052422;28;43980;-68
2023/04/29 06:58:54;;;;;;;5.43;4.40;;;19.00;66.70;;;;;;5061779;28;43427;-68
2023/04/29 07:01:22;;;;;;;5.30;4.20;;;19.00;66.80;;;;;;5061151;28;43449;-68
2023/04/29 07:03:51;;;;;;;5.17;4.10;;;19.00;67.00;;;;;;5058496;28;43643;-68
2023/04/29 07:06:20;;;;;;;5.43;4.10;;;19.00;67.00;;;;;;5054774;28;46056;-69
2023/04/29 07:08:49;;;;;;;3.90;3.60;;;19.00;66.80;;;;;;5064982;28;43565;-69
2023/04/29 07:11:18;;;;;;;3.90;3.53;;;19.00;66.70;;;;;;5050948;28;43483;-68
2023/04/29 07:13:46;;;;;;;5.13;4.63;;;19.00;66.80;;;;;;5052209;28;43619;-68
2023/04/29 07:16:19;;;;;;;5.77;4.57;;;19.00;67.00;;;;;;5055587;28;44175;-68
2023/04/29 07:18:47;;;;;;;4.50;4.10;;;19.00;67.10;;;;;;5052301;28;43838;-68
2023/04/29 07:21:15;;;;;;;5.30;4.33;;;19.00;66.90;;;;;;5051636;28;43370;-68
2023/04/29 07:23:44;;;;;;;4.47;4.07;;;19.10;66.60;;;;;;5051768;28;43624;-68
2023/04/29 07:26:14;;;;;;;5.20;4.10;;;19.20;66.30;;;;;;5052645;28;45997;-68
2023/04/29 07:28:44;;;;;;;4.53;4.13;;;19.20;66.10;;;;;;5061676;28;44837;-68
2023/04/29 07:31:13;;;;;;;4.40;4.00;;;19.20;66.10;;;;;;5056782;28;44116;-68
2023/04/29 07:33:41;;;;;;;4.57;4.17;;;19.20;66.40;;;;;;5062186;28;44065;-68
2023/04/29 07:36:11;;;;;;;4.60;4.10;;;19.20;66.30;;;;;;5056331;28;45947;-68
2023/04/29 07:38:39;;;;;;;5.53;4.30;;;19.20;66.20;;;;;;5064074;28;43427;-68
2023/04/29 07:41:08;;;;;;;4.10;3.80;;;19.20;66.30;;;;;;5057945;28;43396;-68
2023/04/29 07:43:36;;;;;;;4.60;4.20;;;19.10;66.40;;;;;;5064155;28;43566;-68
2023/04/29 07:46:07;;;;;;;5.70;4.37;;;19.10;66.70;;;;;;5062815;28;45157;-68
2023/04/29 07:48:38;;;;;;;3.83;3.53;;;19.10;66.70;;;;;;5066459;28;45031;-68
2023/04/29 07:51:07;;;;;;;5.30;4.27;;;19.10;66.60;;;;;;5058817;28;43412;-69
2023/04/29 07:53:35;;;;;;;4.00;3.70;;;19.00;66.70;;;;;;5065038;28;43450;-68
2023/04/29 07:56:06;;;;;;;4.57;3.90;;;19.00;66.70;;;;;;5061032;28;44851;-68
2023/04/29 07:58:35;;;;;;;4.83;4.43;;;19.00;66.80;;;;;;5062661;28;43735;-68
2023/04/29 08:01:08;;;;;;;3.93;3.63;;;19.00;67.00;;;;;;5063739;28;43440;-68
2023/04/29 08:03:36;;;;;;;4.03;3.73;;;19.00;66.70;;;;;;5063623;28;44005;-68
2023/04/29 08:06:08;;;;;;;4.47;3.87;;;19.10;66.60;;;;;;5059234;28;44731;-70
2023/04/29 08:08:36;;;;;;;4.33;3.80;;;19.20;66.30;;;;;;5053551;28;43400;-67
2023/04/29 08:11:05;;;;;;;4.23;3.93;;;19.20;66.30;;;;;;5065077;28;43492;-68
2023/04/29 08:13:34;;;;;;;4.23;3.90;;;19.10;66.40;;;;;;5049178;28;43411;-68
2023/04/29 08:16:03;;;;;;;3.93;3.63;;;19.10;66.40;;;;;;5063311;28;46075;-68
2023/04/29 08:18:31;;;;;;;4.50;4.10;;;19.10;66.40;;;;;;5055150;28;44431;-69
2023/04/29 08:20:59;;;;;;;3.60;3.37;;;19.10;66.40;;;;;;5063024;28;43374;-68
2023/04/29 08:23:27;;;;;;;4.27;3.97;;;19.10;66.60;;;;;;5066496;28;44052;-68
2023/04/29 08:25:55;;;;;;;3.93;3.63;;;19.00;67.40;;;;;;5064790;28;46419;-68
2023/04/29 08:28:23;;;;;;;3.93;3.63;;;19.00;66.70;;;;;;5060544;28;43412;-68
2023/04/29 08:30:53;;;;;;;3.90;3.63;;;19.00;66.60;;;;;;5063504;28;43550;-68
2023/04/29 08:33:21;;;;;;;3.60;3.40;;;19.00;66.70;;;;;;5061951;28;43477;-69
2023/04/29 08:35:49;;;;;;;3.80;3.50;;;19.00;66.70;;;;;;5063274;28;43998;-68
2023/04/29 08:38:17;;;;;;;4.17;3.87;;;19.00;66.80;;;;;;5067119;28;44749;-68
2023/04/29 08:40:45;;;;;;;4.17;3.87;;;18.90;66.90;;;;;;5066600;28;43443;-69
2023/04/29 08:43:14;;;;;;;4.20;3.83;;;19.00;66.90;;;;;;5059781;28;43458;-68
2023/04/29 08:45:42;;;;;;;3.40;3.20;;;19.00;66.70;;;;;;5060114;28;43756;-68
2023/04/29 08:48:11;;;;;;;3.80;3.50;;;19.00;66.70;;;;;;5060754;28;43875;-68
2023/04/29 08:50:41;;;;;;;4.20;3.90;;;19.00;66.80;;;;;;5057187;28;43884;-68
2023/04/29 08:53:09;;;;;;;4.30;4.00;;;18.90;66.80;;;;;;5057047;28;43382;-68
2023/04/29 08:55:41;;;;;;;4.57;4.17;;;18.90;66.90;;;;;;5049870;28;45719;-73
2023/04/29 08:58:09;;;;;;;4.10;3.80;;;19.00;66.80;;;;;;5074137;28;46159;-68
2023/04/29 09:00:38;;;;;;;3.57;3.37;;;19.10;66.60;;;;;;5060444;28;43395;-72
2023/04/29 09:03:14;;;;;;;3.53;3.33;;;19.20;66.30;;;;;;5056209;28;43460;-68
2023/04/29 09:05:42;;;;;;;4.23;3.93;;;19.20;66.10;;;;;;5059060;28;43595;-68
2023/04/29 09:08:11;;;;;;;4.57;4.27;;;19.20;66.10;;;;;;5046664;28;43382;-68
2023/04/29 09:10:39;;;;;;;4.30;3.93;;;19.20;66.30;;;;;;5061219;28;43467;-68
2023/04/29 09:13:07;;;;;;;3.97;3.70;;;19.20;66.20;;;;;;5065930;28;43398;-68
2023/04/29 09:15:36;;;;;;;3.70;3.40;;;19.20;66.20;;;;;;5060753;28;43614;-68
2023/04/29 09:18:07;;;;;;;3.67;3.47;;;19.10;66.20;;;;;;5062715;28;43433;-72
2023/04/29 09:20:37;;;;;;;3.97;3.67;;;19.10;66.30;;;;;;5056942;28;44030;-68
2023/04/29 09:23:05;;;;;;;4.17;3.80;;;19.00;66.40;;;;;;5059022;28;43555;-68
2023/04/29 09:25:35;;;;;;;4.03;3.73;;;19.00;66.60;;;;;;5063761;28;45354;-68
2023/04/29 09:28:14;;;;;;;4.40;4.20;;;19.00;66.50;;;;;;5055474;28;43995;-68
2023/04/29 09:30:46;;;;;;;3.80;3.50;;;19.00;66.50;;;;;;5060351;28;43411;-69
2023/04/29 09:33:16;;;;;;;4.00;3.70;;;19.00;66.60;;;;;;5058048;28;43286;-68
2023/04/29 09:35:47;;;;;;;4.27;3.97;;;19.00;66.70;;;;;;5054577;28;45658;-68
2023/04/29 09:38:15;;;;;;;3.60;3.33;;;18.90;66.80;;;;;;5055393;28;43866;-68
2023/04/29 09:40:43;;;;;;;4.30;4.00;;;19.00;66.70;;;;;;5065641;28;43469;-68
2023/04/29 09:43:26;;;;;;;4.00;3.80;;;19.10;66.50;;;;;;5053521;28;43396;-68
2023/04/29 09:45:54;;;;;;;3.73;3.53;;;19.20;66.30;;;;;;5058842;28;43853;-68
2023/04/29 09:48:22;;;;;;;3.67;3.47;;;19.20;66.10;;;;;;5050073;28;44462;-68
2023/04/29 09:51:01;;;;;;;3.93;3.73;;;19.10;66.10;;;;;;5059652;28;44013;-68
2023/04/29 09:53:30;;;;;;;3.80;3.50;;;19.10;66.20;;;;;;5052085;28;43578;-68
2023/04/29 09:55:59;;;;;;;3.80;3.60;;;19.10;66.20;;;;;;5063222;28;44011;-68
2023/04/29 09:58:28;;;;;;;3.80;3.60;;;19.10;66.10;;;;;;5061236;28;44744;-68
2023/04/29 10:00:59;;;;;;;3.40;3.20;;;19.10;66.30;;;;;;5054554;28;43379;-68
2023/04/29 10:03:32;;;;;;;3.73;3.57;;;19.00;66.40;;;;;;5066342;28;43459;-68
2023/04/29 10:06:02;;;;;;;3.80;3.60;;;19.00;66.60;;;;;;5063088;28;43879;-68
2023/04/29 10:08:30;;;;;;;3.80;3.60;;;19.00;66.50;;;;;;5063886;28;43437;-68
2023/04/29 10:11:00;;;;;;;3.67;3.47;;;19.00;66.50;;;;;;5067814;28;44431;-68
2023/04/29 10:13:28;;;;;;;3.47;3.37;;;19.00;66.50;;;;;;5051283;28;43915;-68
2023/04/29 10:16:00;;;;;;;3.63;3.40;;;19.00;66.60;;;;;;5055965;28;43848;-68
2023/04/29 10:18:35;;;;;;;4.00;3.80;;;19.00;66.80;;;;;;5057172;28;43971;-68
2023/04/29 10:21:07;;;;;;;3.70;3.50;;;19.00;66.70;;;;;;5056376;28;43399;-67
2023/04/29 10:23:36;;;;;;;3.27;3.07;;;19.00;66.60;;;;;;5065009;28;43473;-68
2023/04/29 10:26:04;;;;;;;3.70;3.50;;;19.00;66.60;;;;;;5058964;28;43928;-71
2023/04/29 10:28:32;;;;;;;3.60;3.40;;;19.00;66.70;;;;;;5062215;28;45135;-68
2023/04/29 10:31:01;;;;;;;3.83;3.63;;;18.90;66.70;;;;;;5056590;28;43382;-68
2023/04/29 10:33:32;;;;;;;3.77;3.47;;;18.90;66.80;;;;;;5064590;28;43509;-68
2023/04/29 10:36:00;;;;;;;3.23;3.10;;;19.00;66.70;;;;;;5061724;28;43690;-68
2023/04/29 10:38:40;;;;;;;3.70;3.50;;;19.10;66.50;;;;;;5060055;28;44745;-70
2023/04/29 10:41:10;;;;;;;3.43;3.23;;;19.20;66.20;;;;;;5072226;28;43451;-73
2023/04/29 10:43:38;;;;;;;3.63;3.43;;;19.20;65.90;;;;;;5064518;28;43465;-72
2023/04/29 10:46:22;;;;;;;3.80;3.60;;;19.20;65.90;;;;;;5065823;28;43836;-68
2023/04/29 10:48:56;;;;;;;3.13;3.03;;;19.20;66.00;;;;;;5055777;28;43549;-69
2023/04/29 10:51:31;;;;;;;3.60;3.30;;;19.20;66.10;;;;;;5070040;28;43474;-68
2023/04/29 10:54:07;;;;;;;3.00;2.90;;;19.20;66.00;;;;;;5062163;28;43443;-68
2023/04/29 10:56:36;;;;;;;3.23;3.10;;;19.20;66.20;;;;;;5063539;28;44072;-68
2023/04/29 10:59:04;;;;;;;3.67;3.47;;;19.10;66.30;;;;;;5066809;28;43359;-68
2023/04/29 11:01:43;;;;;;;3.40;3.30;;;19.00;66.50;;;;;;5057619;28;43467;-68
2023/04/29 11:04:11;;;;;;;3.17;3.00;;;19.10;66.20;;;;;;5059254;28;43591;-68
2023/04/29 11:06:41;;;;;;;3.37;3.17;;;19.00;66.10;;;;;;5052416;28;43845;-68
2023/04/29 11:09:13;;;;;;;3.33;3.23;;;19.00;66.30;;;;;;5062083;28;43368;-70
2023/04/29 11:11:42;;;;;;;3.60;3.40;;;19.00;66.40;;;;;;5055289;28;43718;-68
2023/04/29 11:14:11;;;;;;;4.00;3.80;;;19.00;66.50;;;;;;5061483;28;43705;-68
2023/04/29 11:16:40;;;;;;;3.80;3.53;;;18.90;66.60;;;;;;5060493;28;45034;-69
2023/04/29 11:19:08;;;;;;;3.33;3.10;;;19.00;66.60;;;;;;5061252;28;44581;-72
2023/04/29 11:21:38;;;;;;;3.40;3.30;;;19.00;66.60;;;;;;5061447;28;43395;-68
2023/04/29 11:24:06;;;;;;;3.77;3.53;;;19.00;66.60;;;;;;5065049;28;43382;-68
2023/04/29 11:26:36;;;;;;;3.00;2.90;;;18.90;67.30;;;;;;5064130;28;43999;-68
2023/04/29 11:29:10;;;;;;;3.17;3.07;;;18.90;66.80;;;;;;5068043;28;43583;-68
2023/04/29 11:31:38;;;;;;;3.70;3.50;;;19.00;66.80;;;;;;5056901;28;43474;-72
2023/04/29 11:34:07;;;;;;;3.47;3.27;;;19.10;66.60;;;;;;5053084;28;43448;-68
2023/04/29 11:36:35;;;;;;;2.97;2.73;;;19.20;66.30;;;;;;5053385;28;46890;-67
2023/04/29 11:39:05;;;;;;;3.00;2.90;;;19.20;66.00;;;;;;5062534;28;45046;-68
2023/04/29 11:41:34;;;;;;;2.93;2.83;;;19.20;65.80;;;;;;5056805;28;43412;-68
2023/04/29 11:44:06;;;;;;;3.17;3.03;;;19.20;66.20;;;;;;5055765;28;43471;-69
2023/04/29 11:46:34;;;;;;;3.03;2.83;;;19.20;66.20;;;;;;5056200;28;43609;-70
2023/04/29 11:49:04;;;;;;;3.57;2.97;;;19.20;66.20;;;;;;5054252;28;43452;-68
2023/04/29 11:51:32;;;;;;;3.07;2.93;;;19.10;66.10;;;;;;5059837;28;43423;-70
2023/04/29 11:54:00;;;;;;;2.80;2.70;;;19.10;66.30;;;;;;5059903;28;43474;-69
2023/04/29 11:56:28;;;;;;;3.10;3.00;;;19.00;66.40;;;;;;5067674;28;43760;-68
2023/04/29 11:58:56;;;;;;;3.00;2.90;;;19.00;66.60;;;;;;5048194;28;45569;-69
2023/04/29 12:01:26;;;;;;;3.10;3.00;;;19.00;66.50;;;;;;5046539;28;43448;-68
2023/04/29 12:03:58;;;;;;;2.83;2.63;;;19.00;66.50;;;;;;5055346;28;43394;-70
2023/04/29 12:06:28;;;;;;;2.93;2.83;;;19.00;66.60;;;;;;5054385;28;43681;-68
2023/04/29 12:08:59;;;;;;;3.13;2.97;;;19.00;66.70;;;;;;5061035;28;43474;-68
2023/04/29 12:11:27;;;;;;;2.93;2.83;;;18.90;66.90;;;;;;5056474;28;43924;-68
2023/04/29 12:13:56;;;;;;;3.17;2.97;;;19.00;66.80;;;;;;5067807;28;43344;-68
2023/04/29 12:16:28;;;;;;;3.03;2.93;;;19.00;66.70;;;;;;5070680;28;44084;-68
2023/04/29 12:18:56;;;;;;;2.90;2.80;;;19.00;66.70;;;;;;5057692;28;43745;-68
2023/04/29 12:21:27;;;;;;;3.20;3.10;;;18.90;66.70;;;;;;5058762;28;43427;-71
2023/04/29 12:23:58;;;;;;;2.90;2.80;;;18.90;66.90;;;;;;5058822;28;43514;-68
2023/04/29 12:26:28;;;;;;;2.60;2.60;;;18.90;66.90;;;;;;5057041;28;43646;-68
2023/04/29 12:28:57;;;;;;;2.77;2.67;;;19.00;66.70;;;;;;5051785;28;44236;-68
2023/04/29 12:31:33;;;;;;;2.53;2.43;;;19.10;66.50;;;;;;5049688;28;43727;-69
2023/04/29 12:34:03;;;;;;;2.80;2.70;;;19.20;66.20;;;;;;5053988;28;43453;-68
2023/04/29 12:36:42;;;;;;;2.70;2.60;;;19.20;66.10;;;;;;5050290;28;43879;-68
2023/04/29 12:39:10;;;;;;;2.50;2.50;;;19.20;66.20;;;;;;5049124;28;43474;-68
2023/04/29 12:41:39;;;;;;;2.70;2.60;;;19.20;66.30;;;;;;5053960;28;43451;-71
2023/04/29 12:44:09;;;;;;;2.43;2.33;;;19.20;66.20;;;;;;5049656;28;43573;-69
2023/04/29 12:46:39;;;;;;;2.43;2.43;;;19.10;66.10;;;;;;5047289;28;45492;-70
2023/04/29 12:49:07;;;;;;;2.37;2.37;;;19.10;66.30;;;;;;5049151;28;44226;-67
2023/04/29 12:51:35;;;;;;;2.70;2.60;;;19.00;66.40;;;;;;5051742;28;43458;-68
2023/04/29 12:54:05;;;;;;;2.70;2.60;;;19.00;66.70;;;;;;5051397;28;43526;-72
2023/04/29 12:56:33;;;;;;;2.67;2.57;;;19.00;66.70;;;;;;5053295;28;44689;-68
2023/04/29 12:59:07;;;;;;;2.50;2.40;;;19.00;66.50;;;;;;5051238;28;44816;-68
2023/04/29 13:01:35;;;;;;;2.53;2.43;;;19.00;66.70;;;;;;5068603;28;43484;-67
2023/04/29 13:04:07;;;;;;;2.53;2.43;;;18.90;66.60;;;;;;5054417;28;43435;-68